sensor_id;sensor_type;location;lat;lon;timestamp;temperature;humidity
33699;DHT22;20032;52.436;13.312;2023-03-31T00:01:11;11.00;99.90
33699;DHT22;20032;52.436;13.312;2023-03-31T00:03:37;11.00;99.90
33699;DHT22;20032;52.436;13.312;2023-03-31T00:06:09;11.00;99.90
33699;DHT22;20032;52.436;13.312;2023-03-31T00:08:36;11.00;99.90
33699;DHT22;20032;52.436;13.312;2023-03-31T00:11:04;11.00;99.90
33699;DHT22;20032;52.436;13.312;2023-03-31T00:13:31;10.90;99.90
33699;DHT22;20032;52.436;13.312;2023-03-31T00:16:00;10.90;99.90
33699;DHT22;20032;52.436;13.312;2023-03-31T00:18:26;11.00;99.90
33699;DHT22;20032;52.436;13.312;2023-03-31T00:20:53;11.00;99.90
33699;DHT22;20032;52.436;13.312;2023-03-31T00:23:19;11.10;99.90
33699;DHT22;20032;52.436;13.312;2023-03-31T00:25:52;11.10;99.90
33699;DHT22;20032;52.436;13.312;2023-03-31T00:28:17;11.00;99.90
33699;DHT22;20032;52.436;13.312;2023-03-31T00:30:42;11.00;99.90
33699;DHT22;20032;52.436;13.312;2023-03-31T00:33:08;10.90;99.90
33699;DHT22;20032;52.436;13.312;2023-03-31T00:35:34;10.90;99.90
33699;DHT22;20032;52.436;13.312;2023-03-31T00:38:03;10.90;99.90
33699;DHT22;20032;52.436;13.312;2023-03-31T00:40:30;10.90;99.90
33699;DHT22;20032;52.436;13.312;2023-03-31T00:42:55;10.90;99.90
33699;DHT22;20032;52.436;13.312;2023-03-31T00:45:24;10.90;99.90
33699;DHT22;20032;52.436;13.312;2023-03-31T00:47:56;10.80;99.90
33699;DHT22;20032;52.436;13.312;2023-03-31T00:50:27;10.80;99.90
33699;DHT22;20032;52.436;13.312;2023-03-31T00:52:57;10.80;99.90
33699;DHT22;20032;52.436;13.312;2023-03-31T00:55:33;10.80;99.90
33699;DHT22;20032;52.436;13.312;2023-03-31T00:58:00;10.70;99.90
33699;DHT22;20032;52.436;13.312;2023-03-31T01:00:29;10.70;99.90
33699;DHT22;20032;52.436;13.312;2023-03-31T01:02:58;10.70;99.90
33699;DHT22;20032;52.436;13.312;2023-03-31T01:05:44;10.60;99.90
33699;DHT22;20032;52.436;13.312;2023-03-31T01:08:12;10.70;99.90
33699;DHT22;20032;52.436;13.312;2023-03-31T01:10:41;10.60;99.90
33699;DHT22;20032;52.436;13.312;2023-03-31T01:13:09;10.60;99.90
33699;DHT22;20032;52.436;13.312;2023-03-31T01:15:36;10.70;99.90
33699;DHT22;20032;52.436;13.312;2023-03-31T01:18:03;10.60;99.90
33699;DHT22;20032;52.436;13.312;2023-03-31T01:21:36;10.60;99.90
33699;DHT22;20032;52.436;13.312;2023-03-31T01:23:32;10.50;99.90
33699;DHT22;20032;52.436;13.312;2023-03-31T01:26:15;10.50;99.90
33699;DHT22;20032;52.436;13.312;2023-03-31T01:32:25;10.40;99.90
33699;DHT22;20032;52.436;13.312;2023-03-31T01:35:26;10.40;99.90
33699;DHT22;20032;52.436;13.312;2023-03-31T01:39:18;10.40;99.90
33699;DHT22;20032;52.436;13.312;2023-03-31T01:42:24;10.40;99.90
33699;DHT22;20032;52.436;13.312;2023-03-31T01:45:45;10.30;99.90
33699;DHT22;20032;52.436;13.312;2023-03-31T01:47:18;10.30;99.90
33699;DHT22;20032;52.436;13.312;2023-03-31T01:49:55;10.30;99.90
33699;DHT22;20032;52.436;13.312;2023-03-31T01:52:31;10.30;99.90
33699;DHT22;20032;52.436;13.312;2023-03-31T01:55:07;10.30;99.90
33699;DHT22;20032;52.436;13.312;2023-03-31T01:57:37;10.30;99.90
33699;DHT22;20032;52.436;13.312;2023-03-31T02:00:13;10.30;99.90
33699;DHT22;20032;52.436;13.312;2023-03-31T02:03:03;10.30;99.90
33699;DHT22;20032;52.436;13.312;2023-03-31T02:05:34;10.40;99.90
33699;DHT22;20032;52.436;13.312;2023-03-31T02:08:09;10.40;99.90
33699;DHT22;20032;52.436;13.312;2023-03-31T02:10:37;10.30;99.90
33699;DHT22;20032;52.436;13.312;2023-03-31T02:13:03;10.40;99.90
33699;DHT22;20032;52.436;13.312;2023-03-31T02:15:35;10.50;99.90
33699;DHT22;20032;52.436;13.312;2023-03-31T02:18:03;10.50;99.90
33699;DHT22;20032;52.436;13.312;2023-03-31T02:20:37;10.40;99.90
33699;DHT22;20032;52.436;13.312;2023-03-31T02:23:03;10.40;99.90
33699;DHT22;20032;52.436;13.312;2023-03-31T02:25:35;10.50;99.90
33699;DHT22;20032;52.436;13.312;2023-03-31T02:28:06;10.50;99.90
33699;DHT22;20032;52.436;13.312;2023-03-31T02:30:41;10.60;99.90
33699;DHT22;20032;52.436;13.312;2023-03-31T02:33:10;10.60;99.90
33699;DHT22;20032;52.436;13.312;2023-03-31T02:35:35;10.50;99.90
33699;DHT22;20032;52.436;13.312;2023-03-31T02:38:01;10.50;99.90
33699;DHT22;20032;52.436;13.312;2023-03-31T02:40:27;10.50;99.90
33699;DHT22;20032;52.436;13.312;2023-03-31T02:42:52;10.50;99.90
33699;DHT22;20032;52.436;13.312;2023-03-31T02:48:17;10.60;99.90
33699;DHT22;20032;52.436;13.312;2023-03-31T02:53:50;10.60;99.90
33699;DHT22;20032;52.436;13.312;2023-03-31T02:56:43;10.50;99.90
33699;DHT22;20032;52.436;13.312;2023-03-31T02:59:21;10.60;99.90
33699;DHT22;20032;52.436;13.312;2023-03-31T03:01:55;10.50;99.90
33699;DHT22;20032;52.436;13.312;2023-03-31T03:04:50;10.50;99.90
33699;DHT22;20032;52.436;13.312;2023-03-31T03:07:24;10.50;99.90
33699;DHT22;20032;52.436;13.312;2023-03-31T03:10:06;10.50;99.90
33699;DHT22;20032;52.436;13.312;2023-03-31T03:12:53;10.50;99.90
33699;DHT22;20032;52.436;13.312;2023-03-31T03:15:28;10.50;99.90
33699;DHT22;20032;52.436;13.312;2023-03-31T03:17:55;10.50;99.90
33699;DHT22;20032;52.436;13.312;2023-03-31T03:20:22;10.50;99.90
33699;DHT22;20032;52.436;13.312;2023-03-31T03:22:47;10.60;99.90
33699;DHT22;20032;52.436;13.312;2023-03-31T03:25:14;10.50;99.90
33699;DHT22;20032;52.436;13.312;2023-03-31T03:27:42;10.50;99.90
33699;DHT22;20032;52.436;13.312;2023-03-31T03:30:10;10.50;99.90
33699;DHT22;20032;52.436;13.312;2023-03-31T03:32:36;10.60;99.90
33699;DHT22;20032;52.436;13.312;2023-03-31T03:35:03;10.60;99.90
33699;DHT22;20032;52.436;13.312;2023-03-31T03:37:29;10.50;99.90
33699;DHT22;20032;52.436;13.312;2023-03-31T03:39:55;10.60;99.90
33699;DHT22;20032;52.436;13.312;2023-03-31T03:42:21;10.60;99.90
33699;DHT22;20032;52.436;13.312;2023-03-31T03:44:46;10.60;99.90
33699;DHT22;20032;52.436;13.312;2023-03-31T03:47:12;10.60;99.90
33699;DHT22;20032;52.436;13.312;2023-03-31T03:49:37;10.60;99.90
33699;DHT22;20032;52.436;13.312;2023-03-31T03:52:03;10.70;99.90
33699;DHT22;20032;52.436;13.312;2023-03-31T03:54:28;10.70;99.90
33699;DHT22;20032;52.436;13.312;2023-03-31T03:56:54;10.60;99.90
33699;DHT22;20032;52.436;13.312;2023-03-31T03:59:19;10.60;99.90
33699;DHT22;20032;52.436;13.312;2023-03-31T04:01:45;10.60;99.90
33699;DHT22;20032;52.436;13.312;2023-03-31T04:04:11;10.70;99.90
33699;DHT22;20032;52.436;13.312;2023-03-31T04:06:36;10.60;99.90
33699;DHT22;20032;52.436;13.312;2023-03-31T04:09:02;10.70;99.90
33699;DHT22;20032;52.436;13.312;2023-03-31T04:11:28;10.70;99.90
33699;DHT22;20032;52.436;13.312;2023-03-31T04:13:54;10.60;99.90
33699;DHT22;20032;52.436;13.312;2023-03-31T04:16:19;10.50;99.90
33699;DHT22;20032;52.436;13.312;2023-03-31T04:18:47;10.50;99.90
33699;DHT22;20032;52.436;13.312;2023-03-31T04:21:13;10.50;99.90
33699;DHT22;20032;52.436;13.312;2023-03-31T04:23:48;10.40;99.90
33699;DHT22;20032;52.436;13.312;2023-03-31T04:26:15;10.40;99.90
33699;DHT22;20032;52.436;13.312;2023-03-31T04:28:42;10.50;99.90
33699;DHT22;20032;52.436;13.312;2023-03-31T04:31:12;10.40;99.90
33699;DHT22;20032;52.436;13.312;2023-03-31T04:33:41;10.40;99.90
33699;DHT22;20032;52.436;13.312;2023-03-31T04:36:10;10.40;99.90
33699;DHT22;20032;52.436;13.312;2023-03-31T04:38:42;10.50;99.90
33699;DHT22;20032;52.436;13.312;2023-03-31T04:41:13;10.50;99.90
33699;DHT22;20032;52.436;13.312;2023-03-31T04:43:38;10.50;99.90
33699;DHT22;20032;52.436;13.312;2023-03-31T04:46:04;10.50;99.90
33699;DHT22;20032;52.436;13.312;2023-03-31T04:48:29;10.50;99.90
33699;DHT22;20032;52.436;13.312;2023-03-31T04:50:55;10.40;99.90
33699;DHT22;20032;52.436;13.312;2023-03-31T04:53:20;10.40;99.90
33699;DHT22;20032;52.436;13.312;2023-03-31T04:55:48;10.30;99.90
33699;DHT22;20032;52.436;13.312;2023-03-31T04:58:14;10.20;99.90
33699;DHT22;20032;52.436;13.312;2023-03-31T05:00:39;10.20;99.90
33699;DHT22;20032;52.436;13.312;2023-03-31T05:03:05;10.20;99.90
33699;DHT22;20032;52.436;13.312;2023-03-31T05:05:31;10.20;99.90
33699;DHT22;20032;52.436;13.312;2023-03-31T05:07:56;10.30;99.90
33699;DHT22;20032;52.436;13.312;2023-03-31T05:10:22;10.30;99.90
33699;DHT22;20032;52.436;13.312;2023-03-31T05:12:47;10.30;99.90
33699;DHT22;20032;52.436;13.312;2023-03-31T05:15:13;10.30;99.90
33699;DHT22;20032;52.436;13.312;2023-03-31T05:17:39;10.30;99.90
33699;DHT22;20032;52.436;13.312;2023-03-31T05:20:05;10.20;99.90
33699;DHT22;20032;52.436;13.312;2023-03-31T05:22:35;10.20;99.90
33699;DHT22;20032;52.436;13.312;2023-03-31T05:25:02;10.20;99.90
33699;DHT22;20032;52.436;13.312;2023-03-31T05:27:28;10.20;99.90
33699;DHT22;20032;52.436;13.312;2023-03-31T05:29:54;10.20;99.90
33699;DHT22;20032;52.436;13.312;2023-03-31T05:32:19;10.20;99.90
33699;DHT22;20032;52.436;13.312;2023-03-31T05:34:45;10.20;99.90
33699;DHT22;20032;52.436;13.312;2023-03-31T05:37:11;10.10;99.90
33699;DHT22;20032;52.436;13.312;2023-03-31T05:39:36;10.10;99.90
33699;DHT22;20032;52.436;13.312;2023-03-31T05:42:02;10.20;99.90
33699;DHT22;20032;52.436;13.312;2023-03-31T05:44:29;10.30;99.90
33699;DHT22;20032;52.436;13.312;2023-03-31T05:46:55;10.30;99.90
33699;DHT22;20032;52.436;13.312;2023-03-31T05:49:20;10.40;99.90
33699;DHT22;20032;52.436;13.312;2023-03-31T05:51:46;10.30;99.90
33699;DHT22;20032;52.436;13.312;2023-03-31T05:54:12;10.40;99.90
33699;DHT22;20032;52.436;13.312;2023-03-31T05:56:38;10.40;99.90
33699;DHT22;20032;52.436;13.312;2023-03-31T05:59:03;10.40;99.90
33699;DHT22;20032;52.436;13.312;2023-03-31T06:01:29;10.40;99.90
33699;DHT22;20032;52.436;13.312;2023-03-31T06:03:54;10.40;99.90
33699;DHT22;20032;52.436;13.312;2023-03-31T06:06:20;10.50;99.90
33699;DHT22;20032;52.436;13.312;2023-03-31T06:08:47;10.50;99.90
33699;DHT22;20032;52.436;13.312;2023-03-31T06:11:15;10.50;99.90
33699;DHT22;20032;52.436;13.312;2023-03-31T06:13:41;10.50;99.90
33699;DHT22;20032;52.436;13.312;2023-03-31T06:16:09;10.50;99.90
33699;DHT22;20032;52.436;13.312;2023-03-31T06:18:35;10.60;99.90
33699;DHT22;20032;52.436;13.312;2023-03-31T06:21:01;10.60;99.90
33699;DHT22;20032;52.436;13.312;2023-03-31T06:23:27;10.60;99.90
33699;DHT22;20032;52.436;13.312;2023-03-31T06:25:53;10.70;99.90
33699;DHT22;20032;52.436;13.312;2023-03-31T06:28:20;10.80;99.90
33699;DHT22;20032;52.436;13.312;2023-03-31T06:30:46;10.80;99.90
33699;DHT22;20032;52.436;13.312;2023-03-31T06:33:11;10.90;99.90
33699;DHT22;20032;52.436;13.312;2023-03-31T06:35:38;10.90;99.90
33699;DHT22;20032;52.436;13.312;2023-03-31T06:38:04;10.90;99.90
33699;DHT22;20032;52.436;13.312;2023-03-31T06:40:29;10.90;99.90
33699;DHT22;20032;52.436;13.312;2023-03-31T06:42:55;11.10;99.90
33699;DHT22;20032;52.436;13.312;2023-03-31T06:45:20;11.20;99.90
33699;DHT22;20032;52.436;13.312;2023-03-31T06:47:46;11.30;99.90
33699;DHT22;20032;52.436;13.312;2023-03-31T06:50:12;11.40;99.90
33699;DHT22;20032;52.436;13.312;2023-03-31T06:52:37;11.50;99.90
33699;DHT22;20032;52.436;13.312;2023-03-31T06:55:05;11.50;99.90
33699;DHT22;20032;52.436;13.312;2023-03-31T06:57:31;11.50;99.90
33699;DHT22;20032;52.436;13.312;2023-03-31T06:59:58;11.50;99.90
33699;DHT22;20032;52.436;13.312;2023-03-31T07:02:24;11.50;99.90
33699;DHT22;20032;52.436;13.312;2023-03-31T07:04:49;11.50;99.90
33699;DHT22;20032;52.436;13.312;2023-03-31T07:07:15;11.60;99.90
33699;DHT22;20032;52.436;13.312;2023-03-31T07:09:40;11.70;99.90
33699;DHT22;20032;52.436;13.312;2023-03-31T07:12:06;11.80;99.90
33699;DHT22;20032;52.436;13.312;2023-03-31T07:14:31;11.80;99.90
33699;DHT22;20032;52.436;13.312;2023-03-31T07:16:57;11.90;99.90
33699;DHT22;20032;52.436;13.312;2023-03-31T07:19:23;11.90;99.90
33699;DHT22;20032;52.436;13.312;2023-03-31T07:21:49;11.90;99.90
33699;DHT22;20032;52.436;13.312;2023-03-31T07:24:14;12.00;99.90
33699;DHT22;20032;52.436;13.312;2023-03-31T07:26:40;12.00;99.90
33699;DHT22;20032;52.436;13.312;2023-03-31T07:29:05;12.10;99.90
33699;DHT22;20032;52.436;13.312;2023-03-31T07:31:31;12.20;99.90
33699;DHT22;20032;52.436;13.312;2023-03-31T07:33:57;12.20;99.90
33699;DHT22;20032;52.436;13.312;2023-03-31T07:36:22;12.30;99.90
33699;DHT22;20032;52.436;13.312;2023-03-31T07:38:48;12.40;99.90
33699;DHT22;20032;52.436;13.312;2023-03-31T07:41:17;12.40;99.90
33699;DHT22;20032;52.436;13.312;2023-03-31T07:43:43;12.50;99.90
33699;DHT22;20032;52.436;13.312;2023-03-31T07:46:27;12.60;99.90
33699;DHT22;20032;52.436;13.312;2023-03-31T07:48:54;12.70;99.90
33699;DHT22;20032;52.436;13.312;2023-03-31T07:51:22;12.70;99.90
33699;DHT22;20032;52.436;13.312;2023-03-31T07:53:48;12.80;99.90
33699;DHT22;20032;52.436;13.312;2023-03-31T07:56:14;12.90;99.90
33699;DHT22;20032;52.436;13.312;2023-03-31T07:58:41;12.90;99.90
33699;DHT22;20032;52.436;13.312;2023-03-31T08:01:07;12.80;99.90
33699;DHT22;20032;52.436;13.312;2023-03-31T08:03:33;12.90;99.90
33699;DHT22;20032;52.436;13.312;2023-03-31T08:05:59;12.90;99.90
33699;DHT22;20032;52.436;13.312;2023-03-31T08:08:25;13.00;99.90
33699;DHT22;20032;52.436;13.312;2023-03-31T08:10:51;13.00;99.90
33699;DHT22;20032;52.436;13.312;2023-03-31T08:13:17;13.10;99.90
33699;DHT22;20032;52.436;13.312;2023-03-31T08:15:44;13.20;99.90
33699;DHT22;20032;52.436;13.312;2023-03-31T08:18:09;13.30;99.90
33699;DHT22;20032;52.436;13.312;2023-03-31T08:20:35;13.30;99.90
33699;DHT22;20032;52.436;13.312;2023-03-31T08:23:00;13.40;99.90
33699;DHT22;20032;52.436;13.312;2023-03-31T08:25:26;13.40;99.90
33699;DHT22;20032;52.436;13.312;2023-03-31T08:27:52;13.50;99.90
33699;DHT22;20032;52.436;13.312;2023-03-31T08:30:18;13.70;99.90
33699;DHT22;20032;52.436;13.312;2023-03-31T08:32:45;13.80;99.90
33699;DHT22;20032;52.436;13.312;2023-03-31T08:35:11;13.90;99.90
33699;DHT22;20032;52.436;13.312;2023-03-31T08:37:37;13.80;99.90
33699;DHT22;20032;52.436;13.312;2023-03-31T08:40:04;13.80;99.90
33699;DHT22;20032;52.436;13.312;2023-03-31T08:42:38;13.70;99.90
33699;DHT22;20032;52.436;13.312;2023-03-31T08:45:23;13.70;99.90
33699;DHT22;20032;52.436;13.312;2023-03-31T08:47:54;13.70;99.90
33699;DHT22;20032;52.436;13.312;2023-03-31T08:50:24;13.80;99.90
33699;DHT22;20032;52.436;13.312;2023-03-31T08:52:57;13.70;99.90
33699;DHT22;20032;52.436;13.312;2023-03-31T08:55:27;13.70;99.90
33699;DHT22;20032;52.436;13.312;2023-03-31T08:58:19;13.70;99.90
33699;DHT22;20032;52.436;13.312;2023-03-31T09:01:10;13.70;99.90
33699;DHT22;20032;52.436;13.312;2023-03-31T09:06:37;13.90;99.90
33699;DHT22;20032;52.436;13.312;2023-03-31T09:09:09;14.10;99.90
33699;DHT22;20032;52.436;13.312;2023-03-31T09:11:39;14.20;99.90
33699;DHT22;20032;52.436;13.312;2023-03-31T09:14:29;14.40;99.90
33699;DHT22;20032;52.436;13.312;2023-03-31T09:17:18;14.60;99.90
33699;DHT22;20032;52.436;13.312;2023-03-31T09:23:16;14.60;99.90
33699;DHT22;20032;52.436;13.312;2023-03-31T09:25:30;14.70;99.90
33699;DHT22;20032;52.436;13.312;2023-03-31T09:27:57;14.50;99.90
33699;DHT22;20032;52.436;13.312;2023-03-31T09:30:27;14.30;99.90
33699;DHT22;20032;52.436;13.312;2023-03-31T09:33:14;14.30;99.90
33699;DHT22;20032;52.436;13.312;2023-03-31T09:35:41;14.20;99.90
33699;DHT22;20032;52.436;13.312;2023-03-31T09:38:10;14.30;99.90
33699;DHT22;20032;52.436;13.312;2023-03-31T09:40:35;14.40;99.90
33699;DHT22;20032;52.436;13.312;2023-03-31T09:43:06;14.50;99.90
33699;DHT22;20032;52.436;13.312;2023-03-31T09:45:32;14.40;99.90
33699;DHT22;20032;52.436;13.312;2023-03-31T09:48:03;14.50;99.90
33699;DHT22;20032;52.436;13.312;2023-03-31T09:50:42;14.70;99.90
33699;DHT22;20032;52.436;13.312;2023-03-31T09:53:17;15.10;99.90
33699;DHT22;20032;52.436;13.312;2023-03-31T09:55:51;15.30;99.90
33699;DHT22;20032;52.436;13.312;2023-03-31T09:58:17;15.30;99.90
33699;DHT22;20032;52.436;13.312;2023-03-31T10:00:58;14.90;99.90
33699;DHT22;20032;52.436;13.312;2023-03-31T10:03:25;14.70;99.90
33699;DHT22;20032;52.436;13.312;2023-03-31T10:05:55;14.60;99.90
33699;DHT22;20032;52.436;13.312;2023-03-31T10:08:28;14.40;99.90
33699;DHT22;20032;52.436;13.312;2023-03-31T10:10:57;14.20;99.90
33699;DHT22;20032;52.436;13.312;2023-03-31T10:13:43;14.10;99.90
33699;DHT22;20032;52.436;13.312;2023-03-31T10:16:13;14.10;99.90
33699;DHT22;20032;52.436;13.312;2023-03-31T10:18:41;14.10;99.90
33699;DHT22;20032;52.436;13.312;2023-03-31T10:21:35;14.30;99.90
33699;DHT22;20032;52.436;13.312;2023-03-31T10:24:08;14.60;99.90
33699;DHT22;20032;52.436;13.312;2023-03-31T10:26:35;14.70;99.90
33699;DHT22;20032;52.436;13.312;2023-03-31T10:29:00;14.90;99.90
33699;DHT22;20032;52.436;13.312;2023-03-31T10:31:34;14.80;99.90
33699;DHT22;20032;52.436;13.312;2023-03-31T10:34:06;14.70;99.90
33699;DHT22;20032;52.436;13.312;2023-03-31T10:36:32;14.60;99.90
33699;DHT22;20032;52.436;13.312;2023-03-31T10:39:04;14.60;99.90
33699;DHT22;20032;52.436;13.312;2023-03-31T10:41:30;14.30;99.90
33699;DHT22;20032;52.436;13.312;2023-03-31T10:43:57;14.00;99.90
33699;DHT22;20032;52.436;13.312;2023-03-31T10:46:45;13.90;99.90
33699;DHT22;20032;52.436;13.312;2023-03-31T10:49:27;13.80;99.90
33699;DHT22;20032;52.436;13.312;2023-03-31T10:51:54;13.80;99.90
33699;DHT22;20032;52.436;13.312;2023-03-31T10:54:20;13.60;99.90
33699;DHT22;20032;52.436;13.312;2023-03-31T10:56:49;13.60;99.90
33699;DHT22;20032;52.436;13.312;2023-03-31T10:59:28;13.70;99.90
33699;DHT22;20032;52.436;13.312;2023-03-31T11:02:41;13.90;99.90
33699;DHT22;20032;52.436;13.312;2023-03-31T11:05:13;14.00;99.90
33699;DHT22;20032;52.436;13.312;2023-03-31T11:08:02;14.20;99.90
33699;DHT22;20032;52.436;13.312;2023-03-31T11:10:48;14.20;99.90
33699;DHT22;20032;52.436;13.312;2023-03-31T11:16:31;14.10;99.90
33699;DHT22;20032;52.436;13.312;2023-03-31T11:19:23;14.00;99.90
33699;DHT22;20032;52.436;13.312;2023-03-31T11:24:42;14.20;99.90
33699;DHT22;20032;52.436;13.312;2023-03-31T11:27:27;14.20;99.90
33699;DHT22;20032;52.436;13.312;2023-03-31T11:30:09;14.30;99.90
33699;DHT22;20032;52.436;13.312;2023-03-31T11:35:33;14.50;99.90
33699;DHT22;20032;52.436;13.312;2023-03-31T11:41:12;14.50;99.90
33699;DHT22;20032;52.436;13.312;2023-03-31T11:43:43;14.10;99.90
33699;DHT22;20032;52.436;13.312;2023-03-31T11:46:16;14.30;99.90
33699;DHT22;20032;52.436;13.312;2023-03-31T11:48:50;14.30;99.90
33699;DHT22;20032;52.436;13.312;2023-03-31T11:51:23;14.30;99.90
33699;DHT22;20032;52.436;13.312;2023-03-31T11:53:51;14.20;99.90
33699;DHT22;20032;52.436;13.312;2023-03-31T11:56:17;14.00;99.90
33699;DHT22;20032;52.436;13.312;2023-03-31T11:58:53;14.00;99.90
33699;DHT22;20032;52.436;13.312;2023-03-31T12:06:28;14.10;99.90
33699;DHT22;20032;52.436;13.312;2023-03-31T12:09:10;14.30;99.90
33699;DHT22;20032;52.436;13.312;2023-03-31T12:11:57;14.50;99.90
33699;DHT22;20032;52.436;13.312;2023-03-31T12:17:11;14.60;99.90
33699;DHT22;20032;52.436;13.312;2023-03-31T12:19:44;14.60;99.90
33699;DHT22;20032;52.436;13.312;2023-03-31T12:22:16;14.60;99.90
33699;DHT22;20032;52.436;13.312;2023-03-31T12:24:43;14.50;99.90
33699;DHT22;20032;52.436;13.312;2023-03-31T12:27:28;14.30;99.90
33699;DHT22;20032;52.436;13.312;2023-03-31T12:30:26;14.30;99.90
33699;DHT22;20032;52.436;13.312;2023-03-31T12:32:54;14.30;99.90
33699;DHT22;20032;52.436;13.312;2023-03-31T12:35:28;14.20;99.90
33699;DHT22;20032;52.436;13.312;2023-03-31T12:41:14;13.10;99.90
33699;DHT22;20032;52.436;13.312;2023-03-31T12:44:06;12.90;99.90
33699;DHT22;20032;52.436;13.312;2023-03-31T12:46:48;12.70;99.90
33699;DHT22;20032;52.436;13.312;2023-03-31T12:49:29;12.50;99.90
33699;DHT22;20032;52.436;13.312;2023-03-31T12:55:20;12.30;99.90
33699;DHT22;20032;52.436;13.312;2023-03-31T12:57:47;12.30;99.90
33699;DHT22;20032;52.436;13.312;2023-03-31T13:00:28;12.20;99.90
33699;DHT22;20032;52.436;13.312;2023-03-31T13:03:47;12.20;99.90
33699;DHT22;20032;52.436;13.312;2023-03-31T13:06:01;12.20;99.90
33699;DHT22;20032;52.436;13.312;2023-03-31T13:08:49;12.30;99.90
33699;DHT22;20032;52.436;13.312;2023-03-31T13:11:15;12.40;99.90
33699;DHT22;20032;52.436;13.312;2023-03-31T13:14:00;12.40;99.90
33699;DHT22;20032;52.436;13.312;2023-03-31T13:16:27;12.40;99.90
33699;DHT22;20032;52.436;13.312;2023-03-31T13:18:54;12.40;99.90
33699;DHT22;20032;52.436;13.312;2023-03-31T13:21:20;12.30;99.90
33699;DHT22;20032;52.436;13.312;2023-03-31T13:23:47;12.20;99.90
33699;DHT22;20032;52.436;13.312;2023-03-31T13:29:20;11.90;99.90
33699;DHT22;20032;52.436;13.312;2023-03-31T13:34:32;11.60;99.90
33699;DHT22;20032;52.436;13.312;2023-03-31T13:37:12;11.70;99.90
33699;DHT22;20032;52.436;13.312;2023-03-31T13:42:50;11.50;99.90
33699;DHT22;20032;52.436;13.312;2023-03-31T13:48:33;11.40;99.90
33699;DHT22;20032;52.436;13.312;2023-03-31T13:51:25;11.50;99.90
33699;DHT22;20032;52.436;13.312;2023-03-31T13:54:22;11.50;99.90
33699;DHT22;20032;52.436;13.312;2023-03-31T14:01:11;11.50;99.90
33699;DHT22;20032;52.436;13.312;2023-03-31T14:02:26;11.40;99.90
33699;DHT22;20032;52.436;13.312;2023-03-31T14:06:32;11.30;99.90
33699;DHT22;20032;52.436;13.312;2023-03-31T14:07:49;11.30;99.90
33699;DHT22;20032;52.436;13.312;2023-03-31T14:10:25;11.40;99.90
33699;DHT22;20032;52.436;13.312;2023-03-31T14:13:02;11.40;99.90
33699;DHT22;20032;52.436;13.312;2023-03-31T14:15:28;11.30;99.90
33699;DHT22;20032;52.436;13.312;2023-03-31T14:17:54;11.30;99.90
33699;DHT22;20032;52.436;13.312;2023-03-31T14:21:33;11.30;99.90
33699;DHT22;20032;52.436;13.312;2023-03-31T14:23:40;11.20;99.90
33699;DHT22;20032;52.436;13.312;2023-03-31T14:26:35;11.20;99.90
33699;DHT22;20032;52.436;13.312;2023-03-31T14:29:25;11.20;99.90
33699;DHT22;20032;52.436;13.312;2023-03-31T14:31:58;11.20;99.90
33699;DHT22;20032;52.436;13.312;2023-03-31T14:36:31;11.30;99.90
33699;DHT22;20032;52.436;13.312;2023-03-31T14:37:15;11.20;99.90
33699;DHT22;20032;52.436;13.312;2023-03-31T14:39:48;11.10;99.90
33699;DHT22;20032;52.436;13.312;2023-03-31T14:42:16;11.10;99.90
33699;DHT22;20032;52.436;13.312;2023-03-31T14:44:43;11.10;99.90
33699;DHT22;20032;52.436;13.312;2023-03-31T14:47:15;11.00;99.90
33699;DHT22;20032;52.436;13.312;2023-03-31T14:49:41;11.00;99.90
33699;DHT22;20032;52.436;13.312;2023-03-31T14:52:22;11.10;99.90
33699;DHT22;20032;52.436;13.312;2023-03-31T14:54:52;11.10;99.90
33699;DHT22;20032;52.436;13.312;2023-03-31T14:57:21;11.10;99.90
33699;DHT22;20032;52.436;13.312;2023-03-31T14:59:49;11.20;99.90
33699;DHT22;20032;52.436;13.312;2023-03-31T15:02:20;11.20;99.90
33699;DHT22;20032;52.436;13.312;2023-03-31T15:04:49;11.10;99.90
33699;DHT22;20032;52.436;13.312;2023-03-31T15:07:16;11.10;99.90
33699;DHT22;20032;52.436;13.312;2023-03-31T15:09:45;11.10;99.90
33699;DHT22;20032;52.436;13.312;2023-03-31T15:12:14;11.00;99.90
33699;DHT22;20032;52.436;13.312;2023-03-31T15:14:45;11.00;99.90
33699;DHT22;20032;52.436;13.312;2023-03-31T15:17:22;11.00;99.90
33699;DHT22;20032;52.436;13.312;2023-03-31T15:19:56;11.10;99.90
33699;DHT22;20032;52.436;13.312;2023-03-31T15:22:24;11.10;99.90
33699;DHT22;20032;52.436;13.312;2023-03-31T15:24:51;11.10;99.90
33699;DHT22;20032;52.436;13.312;2023-03-31T15:27:33;11.10;99.90
33699;DHT22;20032;52.436;13.312;2023-03-31T15:30:02;11.10;99.90
33699;DHT22;20032;52.436;13.312;2023-03-31T15:32:30;11.10;99.90
33699;DHT22;20032;52.436;13.312;2023-03-31T15:34:57;11.10;99.90
33699;DHT22;20032;52.436;13.312;2023-03-31T15:37:25;11.10;99.90
33699;DHT22;20032;52.436;13.312;2023-03-31T15:39:54;11.20;99.90
33699;DHT22;20032;52.436;13.312;2023-03-31T15:42:22;11.20;99.90
33699;DHT22;20032;52.436;13.312;2023-03-31T15:45:22;11.20;99.90
33699;DHT22;20032;52.436;13.312;2023-03-31T15:47:52;11.20;99.90
33699;DHT22;20032;52.436;13.312;2023-03-31T15:50:21;11.10;99.90
33699;DHT22;20032;52.436;13.312;2023-03-31T15:52:51;11.20;99.90
33699;DHT22;20032;52.436;13.312;2023-03-31T15:55:39;11.20;99.90
33699;DHT22;20032;52.436;13.312;2023-03-31T15:58:14;11.30;99.90
33699;DHT22;20032;52.436;13.312;2023-03-31T16:00:44;11.30;99.90
33699;DHT22;20032;52.436;13.312;2023-03-31T16:03:18;11.20;99.90
33699;DHT22;20032;52.436;13.312;2023-03-31T16:05:54;11.20;99.90
33699;DHT22;20032;52.436;13.312;2023-03-31T16:08:26;11.20;99.90
33699;DHT22;20032;52.436;13.312;2023-03-31T16:11:00;11.20;99.90
33699;DHT22;20032;52.436;13.312;2023-03-31T16:13:27;11.40;99.90
33699;DHT22;20032;52.436;13.312;2023-03-31T16:15:54;11.40;99.90
33699;DHT22;20032;52.436;13.312;2023-03-31T16:18:29;11.40;99.90
33699;DHT22;20032;52.436;13.312;2023-03-31T16:20:57;11.30;99.90
33699;DHT22;20032;52.436;13.312;2023-03-31T16:23:27;11.30;99.90
33699;DHT22;20032;52.436;13.312;2023-03-31T16:25:55;11.30;99.90
33699;DHT22;20032;52.436;13.312;2023-03-31T16:28:23;11.30;99.90
33699;DHT22;20032;52.436;13.312;2023-03-31T16:30:49;11.30;99.90
33699;DHT22;20032;52.436;13.312;2023-03-31T16:33:18;11.20;99.90
33699;DHT22;20032;52.436;13.312;2023-03-31T16:35:47;11.20;99.90
33699;DHT22;20032;52.436;13.312;2023-03-31T16:38:15;11.20;99.90